Aviation Digital Data Service (ADDS)

Output produced by METARs form (2238 UTC 01 February 2023)
found at http://aviationweather.gov/metar/data/
 
EDDP 012220Z AUTO 25010KT 9999 FEW040 01/M00 Q1013 NOSIG
TAF EDDP 011700Z 0118/0218 27020G30KT CAVOK 
     TEMPO 0118/0124 27025G40KT 3500 SHRASN BKN013CB 
     PROB30 
     TEMPO 0118/0121 2000 TSRAGS 
     BECMG 0205/0208 27015G25KT 
     BECMG 0214/0216 24010KT